createdAt,value
2018-02-05T00:00:03.391Z,17.50
2018-02-05T00:02:29.820Z,19.50
2018-02-05T00:04:56.375Z,19.70
2018-02-05T00:07:23.594Z,20.73
2018-02-05T00:09:49.919Z,22.90
2018-02-05T00:12:16.216Z,19.87
2018-02-05T00:14:42.681Z,18.23
2018-02-05T00:17:09.031Z,16.80
2018-02-05T00:19:36.075Z,17.57
2018-02-05T00:22:02.594Z,20.43
2018-02-05T00:24:28.925Z,17.30
2018-02-05T00:26:55.227Z,12.90
2018-02-05T00:29:21.540Z,14.67
2018-02-05T00:31:47.894Z,12.80
2018-02-05T00:34:14.154Z,15.20
2018-02-05T00:36:41.982Z,16.10
2018-02-05T00:39:08.161Z,16.33
2018-02-05T00:41:35.158Z,16.03
2018-02-05T00:44:01.525Z,15.77
2018-02-05T00:46:27.894Z,14.83
2018-02-05T00:48:54.141Z,17.63
2018-02-05T00:51:20.560Z,12.73
2018-02-05T00:53:46.982Z,15.63
2018-02-05T00:56:13.289Z,14.87
2018-02-05T00:58:40.514Z,16.43
2018-02-05T01:01:06.708Z,15.23
2018-02-05T01:03:33.073Z,15.17
2018-02-05T01:06:00.801Z,14.00
2018-02-05T01:08:27.268Z,17.93
2018-02-05T01:10:54.242Z,22.13
2018-02-05T01:13:20.463Z,14.97
2018-02-05T01:15:47.471Z,15.47
2018-02-05T01:18:13.734Z,14.37
2018-02-05T01:20:40.886Z,17.83
2018-02-05T01:23:07.882Z,15.43
2018-02-05T01:25:34.074Z,21.10
2018-02-05T01:28:00.444Z,18.13
2018-02-05T01:30:26.642Z,18.60
2018-02-05T01:32:53.007Z,23.37
2018-02-05T01:35:19.368Z,19.30
2018-02-05T01:37:46.532Z,18.13
2018-02-05T01:40:13.057Z,20.63
2018-02-05T01:42:40.151Z,23.30
2018-02-05T01:45:13.501Z,16.70
2018-02-05T01:47:39.823Z,18.33
2018-02-05T01:50:06.144Z,20.10
2018-02-05T01:52:33.095Z,20.63
2018-02-05T01:55:00.541Z,17.37
2018-02-05T01:57:27.665Z,18.13
2018-02-05T01:59:54.015Z,20.40
2018-02-05T02:02:21.236Z,20.17
2018-02-05T02:04:47.664Z,19.07
2018-02-05T02:07:14.047Z,19.50
2018-02-05T02:09:40.545Z,18.10
2018-02-05T02:12:08.354Z,18.60
2018-02-05T02:14:35.967Z,21.17
2018-02-05T02:17:03.379Z,18.50
2018-02-05T02:19:29.615Z,18.00
2018-02-05T02:21:55.957Z,17.37
2018-02-05T02:24:22.195Z,27.37
2018-02-05T02:26:48.472Z,26.83
2018-02-05T02:29:14.754Z,20.70
2018-02-05T02:31:40.956Z,19.23
2018-02-05T02:34:07.348Z,19.63
2018-02-05T02:36:33.512Z,21.90
2018-02-05T02:38:59.859Z,24.43
2018-02-05T02:41:26.922Z,20.40
2018-02-05T02:43:54.090Z,19.40
2018-02-05T02:46:21.164Z,17.80
2018-02-05T02:48:47.313Z,22.43
2018-02-05T02:51:13.543Z,20.47
2018-02-05T02:53:39.878Z,21.93
2018-02-05T02:56:06.204Z,20.00
2018-02-05T02:58:32.526Z,25.20
2018-02-05T03:00:58.766Z,24.97
2018-02-05T03:03:24.981Z,18.30
2018-02-05T03:05:51.276Z,23.23
2018-02-05T03:08:17.643Z,20.77
2018-02-05T03:10:44.027Z,24.10
2018-02-05T03:13:10.272Z,19.13
2018-02-05T03:15:36.473Z,21.40
2018-02-05T03:18:03.450Z,21.73
2018-02-05T03:20:29.629Z,18.83
2018-02-05T03:22:56.888Z,17.20
2018-02-05T03:25:23.788Z,20.43
2018-02-05T03:27:50.265Z,24.27
2018-02-05T03:30:17.580Z,28.07
2018-02-05T03:32:44.052Z,24.23
2018-02-05T03:35:10.348Z,30.10
2018-02-05T03:37:36.661Z,37.30
2018-02-05T03:42:55.901Z,23.40
2018-02-05T03:45:22.234Z,23.40
2018-02-05T03:47:48.636Z,31.77
2018-02-05T03:50:14.839Z,29.20
2018-02-05T03:52:41.126Z,28.97
2018-02-05T03:55:07.347Z,32.33
2018-02-05T03:57:33.639Z,29.20
2018-02-05T03:59:59.985Z,23.23
2018-02-05T04:02:26.310Z,28.77
2018-02-05T04:04:53.307Z,30.93
2018-02-05T04:07:19.533Z,39.70
2018-02-05T04:09:45.785Z,27.73
2018-02-05T04:12:11.991Z,50.33
2018-02-05T04:14:39.671Z,39.53
2018-02-05T04:17:05.909Z,40.67
2018-02-05T04:19:32.316Z,30.40
2018-02-05T04:21:58.643Z,37.90
2018-02-05T04:24:24.898Z,40.13
2018-02-05T04:26:51.912Z,46.70
2018-02-05T04:29:18.261Z,43.40
2018-02-05T04:31:44.501Z,38.43
2018-02-05T04:34:11.625Z,44.50
2018-02-05T04:36:37.870Z,47.07
2018-02-05T04:39:04.117Z,33.00
2018-02-05T04:41:31.090Z,37.80
2018-02-05T04:43:57.254Z,39.43
2018-02-05T04:46:23.541Z,37.00
2018-02-05T04:48:49.805Z,37.50
2018-02-05T04:51:16.777Z,36.87
2018-02-05T04:53:43.765Z,35.97
2018-02-05T04:56:10.037Z,33.47
2018-02-05T04:58:36.984Z,32.83
2018-02-05T05:01:03.966Z,34.90
2018-02-05T05:03:30.231Z,42.57
2018-02-05T05:05:56.487Z,42.43
2018-02-05T05:08:23.505Z,33.63
2018-02-05T05:10:49.733Z,37.57
2018-02-05T05:13:16.023Z,33.93
2018-02-05T05:15:42.265Z,34.63
2018-02-05T05:18:08.586Z,32.87
2018-02-05T05:20:34.913Z,31.73
2018-02-05T05:23:01.108Z,37.47
2018-02-05T05:25:28.225Z,33.67
2018-02-05T05:27:54.448Z,34.87
2018-02-05T05:30:20.663Z,37.43
2018-02-05T05:32:47.000Z,35.13
2018-02-05T05:35:13.289Z,28.60
2018-02-05T05:37:39.699Z,28.23
2018-02-05T05:40:06.711Z,27.50
2018-02-05T05:42:33.126Z,25.97
2018-02-05T05:44:59.383Z,28.60
2018-02-05T05:47:25.638Z,41.97
2018-02-05T05:49:51.863Z,40.07
2018-02-05T05:52:18.247Z,32.97
2018-02-05T05:54:44.602Z,47.93
2018-02-05T05:57:11.717Z,27.70
2018-02-05T05:59:37.954Z,29.33
2018-02-05T06:02:04.163Z,30.03
2018-02-05T06:04:30.440Z,31.87
2018-02-05T06:06:57.447Z,50.67
2018-02-05T06:09:23.681Z,57.40
2018-02-05T06:11:49.909Z,49.20
2018-02-05T06:14:16.203Z,46.07
2018-02-05T06:16:42.713Z,43.50
2018-02-05T06:19:09.033Z,38.30
2018-02-05T06:21:36.040Z,42.33
2018-02-05T06:24:02.361Z,42.30
2018-02-05T06:26:28.610Z,45.93
2018-02-05T06:28:54.851Z,42.67
2018-02-05T06:31:21.896Z,34.90
2018-02-05T06:33:49.095Z,25.97
2018-02-05T06:36:15.444Z,28.57
2018-02-05T06:38:41.692Z,30.43
2018-02-05T06:41:07.879Z,27.50
2018-02-05T06:43:34.286Z,35.63
2018-02-05T06:46:00.672Z,28.73
2018-02-05T06:48:28.443Z,27.80
2018-02-05T06:51:07.898Z,28.83
2018-02-05T06:53:47.248Z,25.60
2018-02-05T06:56:23.756Z,28.97
2018-02-05T06:58:50.070Z,26.07
2018-02-05T07:01:16.403Z,29.30
2018-02-05T07:03:42.771Z,31.70
2018-02-05T07:06:09.994Z,28.57
2018-02-05T07:08:36.284Z,28.00
2018-02-05T07:11:02.591Z,27.10
2018-02-05T07:13:29.997Z,28.67
2018-02-05T07:15:56.549Z,30.83
2018-02-05T07:18:22.865Z,33.67
2018-02-05T07:20:49.137Z,35.13
2018-02-05T07:23:16.113Z,27.23
2018-02-05T07:25:42.572Z,23.07
2018-02-05T07:28:08.809Z,25.57
2018-02-05T07:30:35.158Z,27.40
2018-02-05T07:33:02.294Z,29.50
2018-02-05T07:35:28.741Z,27.27
2018-02-05T07:37:55.740Z,23.90
2018-02-05T07:40:22.090Z,27.03
2018-02-05T07:42:48.321Z,32.83
2018-02-05T07:45:15.584Z,43.23
2018-02-05T07:47:42.624Z,29.73
2018-02-05T07:50:08.829Z,32.37
2018-02-05T07:52:35.146Z,25.67
2018-02-05T07:55:01.540Z,28.33
2018-02-05T07:57:34.647Z,24.67
2018-02-05T08:00:00.964Z,38.63
2018-02-05T08:02:27.230Z,32.40
2018-02-05T08:05:01.413Z,27.00
2018-02-05T08:07:27.888Z,23.93
2018-02-05T08:09:54.917Z,43.63
2018-02-05T08:12:21.140Z,31.27
2018-02-05T08:14:47.491Z,29.90
2018-02-05T08:17:13.755Z,35.87
2018-02-05T08:19:39.972Z,31.00
2018-02-05T08:22:06.358Z,26.43
2018-02-05T08:24:32.597Z,25.13
2018-02-05T08:26:59.680Z,26.20
2018-02-05T08:29:26.189Z,34.70
2018-02-05T08:31:52.528Z,34.97
2018-02-05T08:34:19.498Z,28.23
2018-02-05T08:36:45.827Z,29.80
2018-02-05T08:39:12.089Z,54.27
2018-02-05T08:41:38.409Z,72.47
2018-02-05T08:44:04.843Z,49.67
2018-02-05T08:46:31.282Z,42.70
2018-02-05T08:48:57.613Z,34.77
2018-02-05T08:51:23.957Z,31.57
2018-02-05T08:53:50.276Z,34.03
2018-02-05T08:56:16.583Z,52.20
2018-02-05T08:58:42.773Z,32.90
2018-02-05T09:01:09.880Z,36.80
2018-02-05T09:03:36.068Z,41.43
2018-02-05T09:06:02.441Z,35.70
2018-02-05T09:08:30.294Z,41.27
2018-02-05T09:10:56.680Z,42.90
2018-02-05T09:13:23.010Z,52.47
2018-02-05T09:15:49.274Z,46.37
2018-02-05T09:18:15.650Z,62.00
2018-02-05T09:20:42.061Z,42.20
2018-02-05T09:23:08.344Z,44.70
2018-02-05T09:25:34.601Z,36.30
2018-02-05T09:28:01.041Z,41.43
2018-02-05T09:30:27.665Z,57.27
2018-02-05T09:32:54.013Z,71.57
2018-02-05T09:35:21.917Z,75.53
2018-02-05T09:37:48.302Z,48.90
2018-02-05T09:40:15.538Z,43.87
2018-02-05T09:42:41.825Z,47.60
2018-02-05T09:45:08.160Z,36.67
2018-02-05T09:47:34.486Z,32.80
2018-02-05T09:50:00.780Z,37.60
2018-02-05T09:52:27.976Z,46.33
2018-02-05T09:54:54.297Z,36.70
2018-02-05T09:57:20.491Z,35.03
2018-02-05T09:59:47.501Z,40.40
2018-02-05T10:02:13.891Z,42.50
2018-02-05T10:04:40.210Z,138.57
2018-02-05T10:07:06.537Z,58.20
2018-02-05T10:09:32.813Z,34.00
2018-02-05T10:11:59.116Z,34.47
2018-02-05T10:14:25.468Z,80.93
2018-02-05T10:16:51.843Z,49.67
2018-02-05T10:19:18.803Z,56.13
2018-02-05T10:21:45.091Z,35.13
2018-02-05T10:24:12.808Z,40.53
2018-02-05T10:26:39.134Z,37.13
2018-02-05T10:29:05.442Z,45.73
2018-02-05T10:31:32.578Z,42.10
2018-02-05T10:33:59.697Z,43.70
2018-02-05T10:36:25.922Z,60.23
2018-02-05T10:38:52.138Z,62.10
2018-02-05T10:41:18.487Z,50.87
2018-02-05T10:43:45.646Z,52.00
2018-02-05T10:46:12.665Z,53.17
2018-02-05T10:48:39.193Z,50.80
2018-02-05T10:51:05.470Z,62.23
2018-02-05T10:53:32.543Z,76.03
2018-02-05T10:55:58.756Z,51.17
2018-02-05T10:58:25.041Z,94.97
2018-02-05T11:00:52.063Z,69.30
2018-02-05T11:03:18.287Z,110.50
2018-02-05T11:05:44.586Z,126.60
2018-02-05T11:08:10.786Z,46.13
2018-02-05T11:10:37.809Z,56.00
2018-02-05T11:13:04.098Z,45.10
2018-02-05T11:15:30.379Z,67.90
2018-02-05T11:17:56.584Z,55.17
2018-02-05T11:20:22.947Z,45.03
2018-02-05T11:22:49.931Z,42.00
2018-02-05T11:25:16.352Z,47.20
2018-02-05T11:27:42.632Z,47.53
2018-02-05T11:30:09.606Z,39.77
2018-02-05T11:32:35.939Z,30.93
2018-02-05T11:35:02.078Z,40.07
2018-02-05T11:37:28.444Z,30.57
2018-02-05T11:39:54.716Z,32.20
2018-02-05T11:42:21.926Z,23.40
2018-02-05T11:44:48.211Z,26.47
2018-02-05T11:47:14.890Z,27.80
2018-02-05T11:49:41.942Z,44.10
2018-02-05T11:52:08.277Z,47.90
2018-02-05T11:54:35.481Z,33.40
2018-02-05T11:57:01.710Z,31.50
2018-02-05T11:59:28.029Z,35.37
2018-02-05T12:01:54.372Z,26.40
2018-02-05T12:04:20.615Z,29.67
2018-02-05T12:06:46.871Z,28.33
2018-02-05T12:09:13.190Z,31.80
2018-02-05T12:11:41.027Z,27.23
2018-02-05T12:14:07.395Z,26.57
2018-02-05T12:16:33.617Z,21.00
2018-02-05T12:18:59.939Z,25.87
2018-02-05T12:21:27.069Z,25.63
2018-02-05T12:23:53.711Z,27.30
2018-02-05T12:26:19.983Z,22.70
2018-02-05T12:28:46.293Z,17.23
2018-02-05T12:31:13.289Z,18.37
2018-02-05T12:33:39.550Z,20.10
2018-02-05T12:36:06.803Z,22.73
2018-02-05T12:38:34.097Z,24.40
2018-02-05T12:41:00.942Z,27.07
2018-02-05T12:43:27.418Z,20.50
2018-02-05T12:45:55.375Z,19.63
2018-02-05T12:48:21.878Z,23.17
2018-02-05T12:50:48.158Z,24.33
2018-02-05T12:53:15.248Z,25.83
2018-02-05T12:55:41.679Z,25.33
2018-02-05T12:58:08.716Z,18.77
2018-02-05T13:00:35.905Z,24.93
2018-02-05T13:06:12.037Z,24.43
2018-02-05T13:08:38.273Z,20.10
2018-02-05T13:11:04.483Z,31.33
2018-02-05T13:13:30.811Z,22.87
2018-02-05T13:15:57.939Z,27.43
2018-02-05T13:18:24.941Z,25.87
2018-02-05T13:20:51.262Z,23.53
2018-02-05T13:23:17.651Z,21.90
2018-02-05T13:25:44.661Z,26.43
2018-02-05T13:28:10.966Z,24.03
2018-02-05T13:30:37.288Z,28.77
2018-02-05T13:33:03.596Z,20.43
2018-02-05T13:35:30.647Z,23.53
2018-02-05T13:37:57.131Z,26.40
2018-02-05T13:40:23.466Z,28.13
2018-02-05T13:42:49.784Z,37.20
2018-02-05T13:45:16.134Z,32.90
2018-02-05T13:47:42.399Z,31.80
2018-02-05T13:50:08.823Z,28.40
2018-02-05T13:52:35.895Z,33.23
2018-02-05T13:55:02.167Z,29.53
2018-02-05T13:57:28.692Z,29.07
2018-02-05T13:59:55.020Z,25.13
2018-02-05T14:02:21.360Z,25.20
2018-02-05T14:04:47.779Z,27.77
2018-02-05T14:07:14.117Z,30.10
2018-02-05T14:09:41.085Z,30.83
2018-02-05T14:12:08.211Z,26.73
2018-02-05T14:14:34.840Z,27.80
2018-02-05T14:17:01.239Z,27.57
2018-02-05T14:19:27.515Z,33.40
2018-02-05T14:21:53.827Z,35.20
2018-02-05T14:24:20.097Z,37.67
2018-02-05T14:26:46.495Z,26.73
2018-02-05T14:29:12.755Z,25.43
2018-02-05T14:31:38.971Z,36.20
2018-02-05T14:34:05.918Z,33.20
2018-02-05T14:36:32.987Z,33.57
2018-02-05T14:39:00.284Z,37.93
2018-02-05T14:41:26.648Z,35.27
2018-02-05T14:43:53.144Z,38.33
2018-02-05T14:46:19.505Z,36.40
2018-02-05T14:48:46.031Z,38.23
2018-02-05T14:51:12.492Z,37.17
2018-02-05T14:53:38.750Z,31.60
2018-02-05T14:56:05.182Z,33.00
2018-02-05T14:58:31.617Z,28.20
2018-02-05T15:00:57.998Z,25.37
2018-02-05T15:03:24.339Z,28.20
2018-02-05T15:05:50.610Z,34.30
2018-02-05T15:08:16.939Z,32.83
2018-02-05T15:10:44.330Z,26.00
2018-02-05T15:13:10.666Z,26.93
2018-02-05T15:15:37.015Z,21.50
2018-02-05T15:18:03.361Z,25.97
2018-02-05T15:20:29.906Z,24.20
2018-02-05T15:22:56.289Z,22.00
2018-02-05T15:25:22.769Z,32.67
2018-02-05T15:27:49.157Z,41.90
2018-02-05T15:30:15.541Z,48.97
2018-02-05T15:32:42.703Z,42.37
2018-02-05T15:35:09.251Z,38.57
2018-02-05T15:37:35.637Z,30.17
2018-02-05T15:40:01.986Z,23.80
2018-02-05T15:42:28.407Z,42.00
2018-02-05T15:44:54.782Z,29.40
2018-02-05T15:47:21.774Z,22.80
2018-02-05T15:49:48.081Z,22.93
2018-02-05T15:52:14.498Z,25.43
2018-02-05T15:54:40.945Z,27.33
2018-02-05T15:57:07.401Z,30.80
2018-02-05T15:59:33.823Z,22.20
2018-02-05T16:02:00.194Z,25.90
2018-02-05T16:04:26.708Z,25.40
2018-02-05T16:06:53.078Z,23.63
2018-02-05T16:09:19.370Z,16.87
2018-02-05T16:11:47.328Z,46.73
2018-02-05T16:14:13.705Z,32.67
2018-02-05T16:16:39.991Z,16.97
2018-02-05T16:19:06.258Z,21.97
2018-02-05T16:21:33.315Z,15.17
2018-02-05T16:23:59.895Z,22.67
2018-02-05T16:26:27.648Z,18.63
2018-02-05T16:28:54.003Z,22.57
2018-02-05T16:31:21.001Z,20.73
2018-02-05T16:33:48.066Z,18.67
2018-02-05T16:36:14.354Z,22.97
2018-02-05T16:38:40.740Z,24.27
2018-02-05T16:41:07.138Z,26.33
2018-02-05T16:43:33.372Z,21.87
2018-02-05T16:46:00.729Z,29.57
2018-02-05T16:48:27.119Z,31.60
2018-02-05T16:50:53.342Z,31.50
2018-02-05T16:53:19.590Z,28.27
2018-02-05T16:55:45.907Z,35.60
2018-02-05T16:58:12.251Z,36.00
2018-02-05T17:00:38.670Z,40.87
2018-02-05T17:03:05.045Z,36.30
2018-02-05T17:05:31.399Z,39.53
2018-02-05T17:07:58.456Z,37.97
2018-02-05T17:10:25.434Z,32.70
2018-02-05T17:12:51.674Z,34.77
2018-02-05T17:15:18.950Z,32.00
2018-02-05T17:17:45.407Z,30.10
2018-02-05T17:20:12.567Z,35.20
2018-02-05T17:22:38.834Z,31.00
2018-02-05T17:25:05.196Z,32.67
2018-02-05T17:27:31.694Z,46.63
2018-02-05T17:29:58.160Z,33.73
2018-02-05T17:32:26.296Z,31.43
2018-02-05T17:34:52.746Z,37.63
2018-02-05T17:37:19.026Z,33.47
2018-02-05T17:39:45.629Z,47.13
2018-02-05T17:42:11.922Z,32.10
2018-02-05T17:44:38.381Z,46.10
2018-02-05T17:47:05.733Z,27.73
2018-02-05T17:49:32.224Z,27.40
2018-02-05T17:51:58.594Z,31.97
2018-02-05T17:54:24.932Z,33.00
2018-02-05T17:56:51.264Z,34.00
2018-02-05T17:59:19.072Z,29.73
2018-02-05T18:01:45.414Z,24.63
2018-02-05T18:04:11.657Z,37.00
2018-02-05T18:06:37.985Z,30.90
2018-02-05T18:09:04.666Z,40.50
2018-02-05T18:11:31.724Z,36.70
2018-02-05T18:13:58.841Z,33.10
2018-02-05T18:16:26.042Z,42.00
2018-02-05T18:18:52.360Z,32.30
2018-02-05T18:21:18.757Z,31.53
2018-02-05T18:23:45.999Z,30.90
2018-02-05T18:26:12.451Z,33.63
2018-02-05T18:28:39.610Z,39.30
2018-02-05T18:31:06.093Z,36.80
2018-02-05T18:33:32.527Z,34.63
2018-02-05T18:35:59.196Z,27.60
2018-02-05T18:38:26.366Z,36.07
2018-02-05T18:40:52.909Z,26.43
2018-02-05T18:43:19.609Z,24.13
2018-02-05T18:45:46.933Z,29.03
2018-02-05T18:48:13.274Z,29.37
2018-02-05T18:50:41.123Z,26.17
2018-02-05T18:53:07.605Z,27.43
2018-02-05T18:55:34.719Z,29.27
2018-02-05T18:58:01.131Z,28.47
2018-02-05T19:00:40.065Z,27.03
2018-02-05T19:03:06.684Z,26.73
2018-02-05T19:05:33.151Z,25.77
2018-02-05T19:08:00.395Z,24.57
2018-02-05T19:10:26.979Z,32.57
2018-02-05T19:12:53.452Z,27.67
2018-02-05T19:15:20.152Z,22.70
2018-02-05T19:17:46.609Z,26.87
2018-02-05T19:20:12.976Z,27.83
2018-02-05T19:22:39.978Z,24.37
2018-02-05T19:25:06.332Z,33.90
2018-02-05T19:27:32.831Z,29.13
2018-02-05T19:29:59.047Z,19.70
2018-02-05T19:32:25.519Z,27.70
2018-02-05T19:34:51.771Z,24.03
2018-02-05T19:37:18.277Z,27.97
2018-02-05T19:39:44.850Z,29.97
2018-02-05T19:42:12.061Z,36.50
2018-02-05T19:44:38.401Z,24.97
2018-02-05T19:47:05.480Z,25.40
2018-02-05T19:49:31.902Z,25.63
2018-02-05T19:51:58.304Z,25.30
2018-02-05T19:54:25.366Z,20.37
2018-02-05T19:56:52.461Z,24.83
2018-02-05T19:59:18.817Z,25.37
2018-02-05T20:01:45.075Z,19.83
2018-02-05T20:04:11.267Z,18.97
2018-02-05T20:06:37.573Z,23.93
2018-02-05T20:09:03.905Z,17.90
2018-02-05T20:11:30.161Z,23.20
2018-02-05T20:13:56.487Z,20.80
2018-02-05T20:16:22.768Z,24.83
2018-02-05T20:18:49.297Z,28.57
2018-02-05T20:21:16.496Z,24.27
2018-02-05T20:23:42.751Z,24.23
2018-02-05T20:26:09.913Z,23.97
2018-02-05T20:28:36.920Z,24.30
2018-02-05T20:31:03.447Z,19.70
2018-02-05T20:33:29.956Z,19.07
2018-02-05T20:35:56.391Z,15.10
2018-02-05T20:38:22.740Z,19.67
2018-02-05T20:40:49.108Z,19.33
2018-02-05T20:43:16.078Z,22.73
2018-02-05T20:45:42.732Z,20.67
2018-02-05T20:48:09.063Z,23.50
2018-02-05T20:50:35.358Z,19.37
2018-02-05T20:53:01.779Z,16.63
2018-02-05T20:55:28.889Z,26.03
2018-02-05T20:57:55.191Z,18.77
2018-02-05T21:00:21.600Z,18.17
2018-02-05T21:02:47.915Z,17.57
2018-02-05T21:05:15.139Z,20.57
2018-02-05T21:07:41.430Z,20.37
2018-02-05T21:10:07.882Z,15.37
2018-02-05T21:12:34.235Z,20.10
2018-02-05T21:15:00.678Z,20.77
2018-02-05T21:17:28.061Z,19.00
2018-02-05T21:19:54.648Z,21.60
2018-02-05T21:22:20.973Z,24.27
2018-02-05T21:24:47.305Z,19.40
2018-02-05T21:27:13.580Z,24.00
2018-02-05T21:29:39.777Z,23.63
2018-02-05T21:32:06.839Z,25.83
2018-02-05T21:34:33.224Z,34.90
2018-02-05T21:36:59.780Z,49.43
2018-02-05T21:39:26.248Z,44.90
2018-02-05T21:41:52.764Z,43.60
2018-02-05T21:44:20.049Z,54.37
2018-02-05T21:46:46.761Z,53.07
2018-02-05T21:49:13.095Z,54.03
2018-02-05T21:51:39.410Z,54.70
2018-02-05T21:54:06.536Z,54.80
2018-02-05T21:56:33.595Z,54.17
2018-02-05T21:59:00.700Z,52.60
2018-02-05T22:01:27.189Z,53.60
2018-02-05T22:03:54.266Z,43.80
2018-02-05T22:06:20.582Z,39.20
2018-02-05T22:08:46.881Z,38.70
2018-02-05T22:11:13.985Z,39.80
2018-02-05T22:13:40.324Z,38.30
2018-02-05T22:16:06.550Z,36.97
2018-02-05T22:18:32.770Z,36.80
2018-02-05T22:20:59.111Z,31.10
2018-02-05T22:23:25.447Z,29.50
2018-02-05T22:25:53.266Z,33.90
2018-02-05T22:28:19.635Z,62.73
2018-02-05T22:30:45.840Z,55.77
2018-02-05T22:33:12.214Z,70.57
2018-02-05T22:35:39.438Z,65.70
2018-02-05T22:38:05.776Z,46.33
2018-02-05T22:40:32.028Z,43.47
2018-02-05T22:42:59.035Z,54.20
2018-02-05T22:45:25.313Z,42.63
2018-02-05T22:47:51.750Z,45.50
2018-02-05T22:50:18.654Z,48.70
2018-02-05T22:52:45.913Z,42.37
2018-02-05T22:55:13.033Z,40.97
2018-02-05T22:57:39.317Z,29.90
2018-02-05T23:00:05.576Z,28.60
2018-02-05T23:02:32.041Z,27.93
2018-02-05T23:04:59.170Z,34.60
2018-02-05T23:07:25.498Z,33.27
2018-02-05T23:09:51.824Z,31.57
2018-02-05T23:12:18.158Z,26.23
2018-02-05T23:14:44.582Z,33.10
2018-02-05T23:17:17.804Z,31.80
2018-02-05T23:19:44.851Z,26.23
2018-02-05T23:22:11.855Z,29.50
2018-02-05T23:24:38.121Z,30.83
2018-02-05T23:27:04.335Z,33.07
2018-02-05T23:29:30.742Z,33.90
2018-02-05T23:31:57.132Z,31.70
2018-02-05T23:34:23.515Z,31.70
2018-02-05T23:36:49.718Z,31.73
2018-02-05T23:39:16.037Z,29.83
2018-02-05T23:41:42.234Z,32.80
2018-02-05T23:44:09.284Z,27.57
2018-02-05T23:46:36.485Z,25.13
2018-02-05T23:49:02.824Z,28.90
2018-02-05T23:51:29.247Z,36.03
2018-02-05T23:53:55.534Z,33.40
2018-02-05T23:56:21.855Z,34.40
2018-02-05T23:58:48.024Z,33.13
